createdAt,value
2022-08-05T05:30:31.305Z,10.38
2022-08-05T07:22:18.235Z,23.75
2022-08-05T07:26:20.936Z,25.02
2022-08-05T07:30:52.734Z,29.45
2022-08-05T09:27:01.943Z,20.98
2022-08-05T09:46:29.352Z,19.85
2022-08-05T09:49:08.453Z,20.05
2022-08-05T09:51:49.550Z,21.08
2022-08-05T10:32:52.647Z,15.40
2022-08-05T10:35:06.899Z,15.82
2022-08-05T10:37:37.520Z,15.80
2022-08-05T10:40:22.387Z,17.15
2022-08-05T10:42:59.947Z,16.15
2022-08-05T10:45:40.418Z,17.52
2022-08-05T10:48:39.541Z,17.63
2022-08-05T10:51:28.860Z,17.85
2022-08-05T10:54:05.907Z,17.88
2022-08-05T10:56:52.935Z,15.07
2022-08-05T11:00:02.260Z,16.05
2022-08-05T11:02:37.446Z,14.27
2022-08-05T11:05:08.004Z,19.17
2022-08-05T11:08:02.593Z,14.55
2022-08-05T11:10:37.697Z,16.15
2022-08-05T11:13:57.634Z,12.07
2022-08-05T11:16:47.517Z,11.32
2022-08-05T11:20:10.665Z,10.75
2022-08-05T11:22:43.981Z,9.45
2022-08-05T11:26:04.556Z,8.45
2022-08-05T11:28:44.276Z,8.90
2022-08-05T11:31:54.468Z,9.27
2022-08-05T11:34:37.194Z,10.18
2022-08-05T11:37:06.201Z,6.20
2022-08-05T11:40:00.305Z,6.03
2022-08-05T11:42:38.116Z,7.15
2022-08-05T11:45:14.498Z,3.47
2022-08-05T11:47:55.130Z,4.90
2022-08-05T11:50:23.643Z,3.42
2022-08-05T11:52:57.554Z,2.33
2022-08-05T11:55:31.570Z,2.90
2022-08-05T11:58:09.878Z,3.08
2022-08-05T12:00:44.098Z,3.17
2022-08-05T12:03:28.764Z,3.85
2022-08-05T12:06:05.782Z,4.72
2022-08-05T12:08:49.705Z,3.83
2022-08-05T12:11:21.898Z,11.38
2022-08-05T12:13:58.708Z,6.40
2022-08-05T12:16:38.208Z,5.10
2022-08-05T12:19:08.220Z,8.05
2022-08-05T12:21:42.696Z,4.80
2022-08-05T12:24:13.872Z,2.42
2022-08-05T12:26:48.383Z,5.70
2022-08-05T12:29:22.883Z,3.40
2022-08-05T12:31:53.668Z,5.15
2022-08-05T12:34:24.072Z,4.20
2022-08-05T12:36:54.288Z,6.50
2022-08-05T12:39:27.931Z,2.88
2022-08-05T12:42:04.488Z,5.82
2022-08-05T12:44:36.877Z,3.08
2022-08-05T12:47:12.439Z,5.30
2022-08-05T12:50:03.420Z,4.63
2022-08-05T12:52:38.673Z,4.47
2022-08-05T12:55:23.836Z,7.35
2022-08-05T12:58:38.364Z,3.42
2022-08-05T13:02:01.517Z,6.82
2022-08-05T13:03:41.460Z,5.30
2022-08-05T13:06:16.077Z,2.08
2022-08-05T13:08:50.675Z,5.90
2022-08-05T13:11:25.409Z,4.07
2022-08-05T13:14:20.209Z,4.32
2022-08-05T13:16:56.578Z,4.38
2022-08-05T13:19:26.361Z,4.55
2022-08-05T13:21:56.680Z,4.68
2022-08-05T13:24:36.543Z,4.28
2022-08-05T13:27:16.924Z,4.72
2022-08-05T13:29:59.404Z,3.65
2022-08-05T13:32:42.179Z,3.15
2022-08-05T13:35:15.330Z,4.75
2022-08-05T13:37:55.736Z,3.65
2022-08-05T13:40:47.931Z,5.25
2022-08-05T13:43:12.221Z,5.13
2022-08-05T13:45:43.320Z,3.60
2022-08-05T13:48:58.261Z,4.75
2022-08-05T13:51:06.693Z,4.95
2022-08-05T13:53:35.095Z,4.88
2022-08-05T13:56:18.442Z,3.22
2022-08-05T13:58:52.973Z,4.75
2022-08-05T14:01:27.404Z,4.10
2022-08-05T14:04:28.093Z,3.65
2022-08-05T14:06:58.826Z,5.03
2022-08-05T14:09:46.378Z,3.28
2022-08-05T14:12:18.339Z,3.53
2022-08-05T14:15:00.818Z,6.43
2022-08-05T14:17:35.698Z,3.30
2022-08-05T14:20:07.650Z,3.13
2022-08-05T14:22:36.300Z,3.10
2022-08-05T14:25:06.434Z,3.63
2022-08-05T14:27:50.882Z,8.90
2022-08-05T14:30:20.851Z,4.45
2022-08-05T14:32:51.297Z,2.17
2022-08-05T14:35:20.628Z,6.63
2022-08-05T14:37:55.004Z,6.78
2022-08-05T14:40:24.396Z,5.00
2022-08-05T14:42:52.627Z,6.65
2022-08-05T14:45:20.527Z,3.92
2022-08-05T14:48:03.748Z,7.07
2022-08-05T14:50:38.905Z,3.10
2022-08-05T14:53:08.678Z,5.82
2022-08-05T14:55:39.459Z,5.82
2022-08-05T14:58:10.819Z,7.75
2022-08-05T15:00:39.435Z,4.57
2022-08-05T15:03:33.989Z,7.45
2022-08-05T15:06:15.501Z,5.20
2022-08-05T15:09:01.123Z,5.28
2022-08-05T15:11:51.712Z,4.97
2022-08-05T15:14:35.794Z,22.77
2022-08-05T15:17:44.553Z,5.30
2022-08-05T15:19:58.101Z,5.38
2022-08-05T15:22:27.257Z,5.10
2022-08-05T15:24:56.157Z,4.32
2022-08-05T15:27:25.399Z,5.15
2022-08-05T15:29:54.341Z,4.28
2022-08-05T15:32:28.639Z,5.40
2022-08-05T15:34:58.692Z,6.78
2022-08-05T15:38:34.306Z,6.65
2022-08-05T15:40:58.221Z,4.18
2022-08-05T15:43:12.676Z,3.45
2022-08-05T15:45:47.949Z,4.47
2022-08-05T15:48:29.512Z,3.38
2022-08-05T15:51:03.285Z,7.00
2022-08-05T15:53:38.078Z,5.43
2022-08-05T15:56:18.239Z,3.03
2022-08-05T15:58:47.249Z,3.83
2022-08-05T16:01:16.463Z,4.07
2022-08-05T16:03:48.133Z,6.03
2022-08-05T16:06:20.345Z,5.05
2022-08-05T16:08:51.234Z,4.35
2022-08-05T16:11:40.150Z,5.32
2022-08-05T16:14:09.552Z,6.40
2022-08-05T16:16:37.564Z,3.03
2022-08-05T16:19:06.461Z,3.35
2022-08-05T16:22:00.359Z,5.60
2022-08-05T16:24:39.998Z,3.80
2022-08-05T16:27:10.148Z,3.97
2022-08-05T16:29:47.480Z,4.53
2022-08-05T16:32:28.522Z,7.32
2022-08-05T16:34:58.857Z,4.38
2022-08-05T16:38:15.889Z,4.03
2022-08-05T16:40:26.492Z,4.97
2022-08-05T16:42:57.399Z,4.15
2022-08-05T16:46:03.907Z,5.20
2022-08-05T16:48:25.606Z,6.47
2022-08-05T16:51:00.695Z,4.22
2022-08-05T16:53:32.086Z,4.25
2022-08-05T16:56:00.712Z,4.00
2022-08-05T16:58:29.707Z,11.52
2022-08-05T17:00:58.121Z,8.13
2022-08-05T17:03:27.365Z,6.13
2022-08-05T17:05:59.585Z,6.20
2022-08-05T17:08:36.408Z,3.90
2022-08-05T17:11:17.368Z,4.78
2022-08-05T17:13:45.505Z,7.78
2022-08-05T17:16:29.855Z,5.13
2022-08-05T17:19:01.126Z,5.72
2022-08-05T17:21:35.522Z,5.93
2022-08-05T17:24:30.262Z,5.57
2022-08-05T17:26:56.637Z,3.70
2022-08-05T17:29:33.339Z,9.48
2022-08-05T17:32:02.072Z,2.75
2022-08-05T17:34:32.245Z,8.98
2022-08-05T17:37:04.589Z,6.13
2022-08-05T17:39:46.158Z,3.85
2022-08-05T17:42:22.872Z,3.38
2022-08-05T17:44:53.599Z,5.75
2022-08-05T17:47:22.916Z,4.15
2022-08-05T17:50:04.168Z,6.38
2022-08-05T17:52:53.266Z,5.78
2022-08-05T17:55:27.416Z,9.43
2022-08-05T17:58:04.980Z,3.47
2022-08-05T18:00:35.445Z,4.55
2022-08-05T18:03:03.403Z,7.38
2022-08-05T18:05:36.118Z,8.57
2022-08-05T18:08:04.471Z,8.77
2022-08-05T18:10:33.853Z,5.70
2022-08-05T18:13:07.652Z,7.03
2022-08-05T18:15:41.009Z,6.68
2022-08-05T18:18:11.347Z,3.30
2022-08-05T18:20:39.488Z,7.88
2022-08-05T18:23:12.059Z,6.35
2022-08-05T18:25:45.492Z,1.92
2022-08-05T18:28:16.391Z,4.10
2022-08-05T18:30:45.585Z,3.47
2022-08-05T18:33:22.984Z,2.25
2022-08-05T18:36:01.007Z,3.83
2022-08-05T18:38:35.808Z,3.70
2022-08-05T18:41:55.810Z,3.80
2022-08-05T18:43:55.114Z,2.20
2022-08-05T18:46:26.203Z,3.22
2022-08-05T18:48:56.928Z,14.13
2022-08-05T18:52:06.505Z,7.60
2022-08-05T18:54:31.895Z,4.25
2022-08-05T18:57:01.564Z,4.97
2022-08-05T18:59:43.751Z,7.70
2022-08-05T19:02:28.323Z,3.47
2022-08-05T19:05:02.313Z,3.05
2022-08-05T19:07:47.654Z,1.48
2022-08-05T19:10:15.961Z,2.78
2022-08-05T19:12:46.463Z,3.15
2022-08-05T19:15:56.825Z,1.98
2022-08-05T19:18:09.219Z,5.18
2022-08-05T19:20:41.419Z,3.58
2022-08-05T19:23:22.665Z,4.63
2022-08-05T19:26:02.193Z,2.10
2022-08-05T19:28:32.887Z,1.83
2022-08-05T19:31:04.882Z,9.23
2022-08-05T19:33:36.771Z,2.38
2022-08-05T19:36:06.402Z,1.88
2022-08-05T19:38:35.647Z,5.28
2022-08-05T19:41:07.421Z,2.78
2022-08-05T19:44:05.805Z,5.32
2022-08-05T19:46:30.376Z,3.05
2022-08-05T19:49:01.256Z,1.55
2022-08-05T19:52:04.362Z,2.50
2022-08-05T19:54:27.012Z,2.10
2022-08-05T19:56:58.772Z,2.85
2022-08-05T20:00:00.547Z,3.08
2022-08-05T20:02:17.623Z,4.32
2022-08-05T20:04:46.246Z,3.42
2022-08-05T20:07:16.320Z,4.43
2022-08-05T20:10:13.526Z,4.72
2022-08-05T20:12:46.068Z,3.42
2022-08-05T20:15:48.302Z,0.90
2022-08-05T20:18:10.634Z,2.13
2022-08-05T20:20:56.818Z,2.35
2022-08-05T20:23:40.342Z,1.38
2022-08-05T20:26:15.867Z,2.95
2022-08-05T20:28:47.895Z,2.65
2022-08-05T20:31:17.669Z,3.58
2022-08-05T20:33:50.146Z,2.60
2022-08-05T20:36:18.253Z,3.75
2022-08-05T20:38:54.598Z,1.80
2022-08-05T20:41:43.307Z,2.67
2022-08-05T20:44:19.418Z,1.65
2022-08-05T20:47:01.331Z,2.53
2022-08-05T20:49:29.256Z,3.20
2022-08-05T20:51:58.142Z,3.80
2022-08-05T20:54:43.066Z,3.40
2022-08-05T20:57:25.063Z,4.32
2022-08-05T21:00:19.936Z,1.30
2022-08-05T21:02:59.984Z,4.93
2022-08-05T21:05:47.727Z,1.20
2022-08-05T21:08:17.638Z,3.55
2022-08-05T21:10:49.012Z,1.20
2022-08-05T21:13:25.911Z,3.00
2022-08-05T21:16:05.568Z,4.88
2022-08-05T21:18:34.871Z,4.20
2022-08-05T21:21:03.738Z,3.30
2022-08-05T21:23:36.991Z,3.60
2022-08-05T21:26:12.271Z,4.03
2022-08-05T21:28:40.506Z,2.05
2022-08-05T21:31:15.851Z,4.45
2022-08-05T21:33:47.859Z,2.67
2022-08-05T21:36:27.676Z,4.07
2022-08-05T21:38:58.541Z,2.83
2022-08-05T21:41:33.086Z,3.22
2022-08-05T21:44:04.311Z,1.50
2022-08-05T21:46:34.352Z,3.38
2022-08-05T21:49:07.549Z,4.15
2022-08-05T21:52:22.856Z,2.25
2022-08-05T21:54:30.826Z,2.28
2022-08-05T21:57:29.782Z,5.35
2022-08-05T22:00:03.922Z,1.80
2022-08-05T22:02:41.721Z,2.88
2022-08-05T22:05:12.805Z,2.55
2022-08-05T22:07:58.923Z,2.17
2022-08-05T22:10:27.928Z,2.53
2022-08-05T22:12:57.372Z,3.17
2022-08-05T22:16:00.750Z,3.42
2022-08-05T22:18:14.930Z,2.35
2022-08-05T22:20:44.342Z,2.63
2022-08-05T22:24:01.006Z,1.92
2022-08-05T22:26:41.997Z,4.88
2022-08-05T22:29:18.700Z,2.03
2022-08-05T22:31:46.899Z,2.75
2022-08-05T22:34:28.337Z,2.53
2022-08-05T22:36:58.240Z,3.20
2022-08-05T22:39:33.081Z,2.63
2022-08-05T22:42:10.353Z,4.22
2022-08-05T22:44:47.070Z,2.30
2022-08-05T22:47:28.664Z,5.72
2022-08-05T22:50:21.750Z,3.40
2022-08-05T22:52:49.472Z,1.35
2022-08-05T22:55:19.210Z,2.15
2022-08-05T22:57:48.912Z,3.15
2022-08-05T23:00:20.978Z,1.52
2022-08-05T23:02:49.461Z,2.17
2022-08-05T23:05:18.282Z,3.05
2022-08-05T23:07:49.505Z,1.48
2022-08-05T23:10:23.549Z,3.40
2022-08-05T23:12:54.538Z,4.32
2022-08-05T23:15:29.070Z,2.30
2022-08-05T23:18:01.233Z,2.28
2022-08-05T23:20:31.323Z,2.47
2022-08-05T23:23:00.356Z,2.15
2022-08-05T23:25:53.627Z,2.90
2022-08-05T23:28:20.626Z,1.70
2022-08-05T23:30:53.220Z,1.85
2022-08-05T23:33:26.276Z,1.65
2022-08-05T23:36:10.595Z,5.70
2022-08-05T23:38:38.509Z,4.13
2022-08-05T23:41:07.676Z,2.42
2022-08-05T23:44:04.754Z,2.92
2022-08-05T23:46:24.502Z,3.83
2022-08-05T23:49:01.143Z,4.18
2022-08-05T23:51:48.403Z,2.70
2022-08-05T23:54:25.716Z,2.47
2022-08-05T23:56:58.279Z,3.83
2022-08-05T23:59:37.701Z,3.60
